createdAt,value
2022-11-19T00:02:02.008Z,0.77
2022-11-19T00:04:29.963Z,0.67
2022-11-19T00:06:59.557Z,0.83
2022-11-19T00:09:27.562Z,0.83
2022-11-19T00:12:13.106Z,0.60
2022-11-19T00:14:41.178Z,0.80
2022-11-19T00:17:09.102Z,1.10
2022-11-19T00:19:37.045Z,0.80
2022-11-19T00:22:06.273Z,0.77
2022-11-19T00:24:34.196Z,0.70
2022-11-19T00:27:02.179Z,4.00
2022-11-19T00:29:30.091Z,1.10
2022-11-19T00:31:58.012Z,0.70
2022-11-19T00:34:25.900Z,0.80
2022-11-19T00:36:53.792Z,1.00
2022-11-19T00:39:23.196Z,1.10
2022-11-19T00:41:51.197Z,0.80
2022-11-19T00:44:19.151Z,0.80
2022-11-19T00:46:47.001Z,0.70
2022-11-19T00:49:14.879Z,0.83
2022-11-19T00:51:42.807Z,1.10
2022-11-19T00:54:10.993Z,1.20
2022-11-19T00:56:40.221Z,0.60
2022-11-19T00:59:08.443Z,0.83
2022-11-19T01:01:36.455Z,0.90
2022-11-19T01:04:04.502Z,0.70
2022-11-19T01:06:32.473Z,1.10
2022-11-19T01:09:00.568Z,0.90
2022-11-19T01:11:31.163Z,0.87
2022-11-19T01:14:01.458Z,0.80
2022-11-19T01:16:31.488Z,0.90
2022-11-19T01:18:59.790Z,0.90
2022-11-19T01:21:29.914Z,0.80
2022-11-19T01:23:58.532Z,0.73
2022-11-19T01:26:30.627Z,0.97
2022-11-19T01:29:00.304Z,0.70
2022-11-19T01:31:29.749Z,1.80
2022-11-19T01:33:59.058Z,0.97
2022-11-19T01:36:28.541Z,1.00
2022-11-19T01:38:57.298Z,1.10
2022-11-19T01:41:27.833Z,1.10
2022-11-19T01:43:59.022Z,0.80
2022-11-19T01:46:30.051Z,0.87
2022-11-19T01:49:03.423Z,0.80
2022-11-19T01:51:35.810Z,1.00
2022-11-19T01:54:08.603Z,1.27
2022-11-19T01:56:37.219Z,1.17
2022-11-19T01:59:10.597Z,1.30
2022-11-19T02:01:39.976Z,1.20
2022-11-19T02:04:08.936Z,1.43
2022-11-19T02:06:37.354Z,1.00
2022-11-19T02:09:05.361Z,1.00
2022-11-19T02:12:04.459Z,1.10
2022-11-19T02:15:02.116Z,0.70
2022-11-19T02:17:53.630Z,1.10
2022-11-19T02:20:42.086Z,1.40
2022-11-19T02:23:45.981Z,1.40
2022-11-19T02:26:46.958Z,1.10
2022-11-19T02:29:30.404Z,1.30
2022-11-19T02:32:02.674Z,1.13
2022-11-19T02:34:34.829Z,1.23
2022-11-19T02:37:09.934Z,1.27
2022-11-19T02:39:41.910Z,1.30
2022-11-19T02:42:18.456Z,1.00
2022-11-19T02:45:00.186Z,1.07
2022-11-19T02:47:32.854Z,1.20
2022-11-19T02:50:04.722Z,1.20
2022-11-19T02:52:33.526Z,1.27
2022-11-19T02:55:01.487Z,1.40
2022-11-19T02:57:29.429Z,0.90
2022-11-19T03:00:19.454Z,1.30
2022-11-19T03:03:10.988Z,1.13
2022-11-19T03:05:41.665Z,1.20
2022-11-19T03:08:09.623Z,1.17
2022-11-19T03:10:46.877Z,1.30
2022-11-19T03:13:40.174Z,1.23
2022-11-19T03:16:28.069Z,1.20
2022-11-19T03:19:05.271Z,1.00
2022-11-19T03:21:39.515Z,1.53
2022-11-19T03:24:13.931Z,1.10
2022-11-19T03:26:45.724Z,0.93
2022-11-19T03:29:16.008Z,1.30
2022-11-19T03:31:49.644Z,1.30
2022-11-19T03:34:24.798Z,1.33
2022-11-19T03:36:57.187Z,1.37
2022-11-19T03:39:26.076Z,0.87
2022-11-19T03:41:56.051Z,1.50
2022-11-19T03:44:28.162Z,1.03
2022-11-19T03:47:01.810Z,1.23
2022-11-19T03:49:34.854Z,1.07
2022-11-19T03:52:08.027Z,1.27
2022-11-19T03:54:35.959Z,1.30
2022-11-19T03:57:06.595Z,1.53
2022-11-19T03:59:35.074Z,1.30
2022-11-19T04:02:07.332Z,1.20
2022-11-19T04:04:37.331Z,1.20
2022-11-19T04:07:07.307Z,1.20
2022-11-19T04:09:35.724Z,1.33
2022-11-19T04:12:04.256Z,1.20
2022-11-19T04:14:32.188Z,1.20
2022-11-19T04:17:00.500Z,1.33
2022-11-19T04:19:28.452Z,1.33
2022-11-19T04:21:57.743Z,1.40
2022-11-19T04:24:25.612Z,1.30
2022-11-19T04:26:53.740Z,1.47
2022-11-19T04:29:21.971Z,3.53
2022-11-19T04:31:50.121Z,1.40
2022-11-19T04:34:18.043Z,0.93
2022-11-19T04:36:46.245Z,0.90
2022-11-19T04:39:15.568Z,1.00
2022-11-19T04:41:43.544Z,1.10
2022-11-19T04:44:11.441Z,1.23
2022-11-19T04:46:39.372Z,1.27
2022-11-19T04:49:07.270Z,1.50
2022-11-19T04:51:35.202Z,1.23
2022-11-19T04:54:03.122Z,1.20
2022-11-19T04:56:32.378Z,1.20
2022-11-19T04:59:00.221Z,1.47
2022-11-19T05:01:28.216Z,1.30
2022-11-19T05:03:56.208Z,1.40
2022-11-19T05:06:24.211Z,1.33
2022-11-19T05:08:52.137Z,1.30
2022-11-19T05:11:20.049Z,1.10
2022-11-19T05:13:49.323Z,1.20
2022-11-19T05:16:17.410Z,1.37
2022-11-19T05:18:45.327Z,1.20
2022-11-19T05:21:13.210Z,1.20
2022-11-19T05:23:41.129Z,1.23
2022-11-19T05:26:09.087Z,1.70
2022-11-19T05:28:39.684Z,1.13
2022-11-19T05:31:09.723Z,1.63
2022-11-19T05:33:37.585Z,1.00
2022-11-19T05:36:06.168Z,1.00
2022-11-19T05:38:34.101Z,1.23
2022-11-19T05:41:01.955Z,1.13
2022-11-19T05:43:29.846Z,1.80
2022-11-19T05:46:01.133Z,1.60
2022-11-19T05:48:30.594Z,1.10
2022-11-19T05:50:58.559Z,1.30
2022-11-19T05:53:27.224Z,1.47
2022-11-19T05:55:55.121Z,1.40
2022-11-19T05:58:23.063Z,1.20
2022-11-19T06:00:55.611Z,1.40
2022-11-19T06:03:23.607Z,1.20
2022-11-19T06:05:53.107Z,1.50
2022-11-19T06:08:21.138Z,1.47
2022-11-19T06:10:49.120Z,1.30
2022-11-19T06:13:17.055Z,1.50
2022-11-19T06:15:44.958Z,1.30
2022-11-19T06:18:12.860Z,1.30
2022-11-19T06:20:40.802Z,1.13
2022-11-19T06:23:10.097Z,1.40
2022-11-19T06:25:38.044Z,1.30
2022-11-19T06:28:06.145Z,1.77
2022-11-19T06:30:34.046Z,1.17
2022-11-19T06:33:01.918Z,1.23
2022-11-19T06:35:29.817Z,1.50
2022-11-19T06:37:57.724Z,2.30
2022-11-19T06:40:27.156Z,1.30
2022-11-19T06:42:55.037Z,1.50
2022-11-19T06:45:22.910Z,1.13
2022-11-19T06:47:51.040Z,1.30
2022-11-19T06:50:19.065Z,1.50
2022-11-19T06:52:46.994Z,1.13
2022-11-19T06:55:15.449Z,1.33
2022-11-19T06:57:44.718Z,1.37
2022-11-19T07:00:13.988Z,1.30
2022-11-19T07:02:41.981Z,1.20
2022-11-19T07:05:10.290Z,1.10
2022-11-19T07:07:38.241Z,1.50
2022-11-19T07:10:07.198Z,1.10
2022-11-19T07:12:35.148Z,1.33
2022-11-19T07:15:05.084Z,1.33
2022-11-19T07:17:33.025Z,1.40
2022-11-19T07:20:01.033Z,1.37
2022-11-19T07:22:28.949Z,1.20
2022-11-19T07:24:56.820Z,1.23
2022-11-19T07:27:25.030Z,1.10
2022-11-19T07:29:52.945Z,1.10
2022-11-19T07:32:22.207Z,1.20
2022-11-19T07:34:50.125Z,1.53
2022-11-19T07:37:18.502Z,1.20
2022-11-19T07:39:46.917Z,1.10
2022-11-19T07:42:28.746Z,1.60
2022-11-19T07:44:56.645Z,1.47
2022-11-19T07:47:25.930Z,1.27
2022-11-19T07:49:54.201Z,1.40
2022-11-19T07:52:22.570Z,1.07
2022-11-19T07:54:50.440Z,1.07
2022-11-19T07:57:18.362Z,1.60
2022-11-19T07:59:46.319Z,1.37
2022-11-19T08:02:15.104Z,1.17
2022-11-19T08:04:44.453Z,2.20
2022-11-19T08:07:12.553Z,1.03
2022-11-19T08:09:40.573Z,1.50
2022-11-19T08:12:08.730Z,1.10
2022-11-19T08:14:36.680Z,1.30
2022-11-19T08:17:21.996Z,1.37
2022-11-19T08:19:51.269Z,1.50
2022-11-19T08:22:19.133Z,1.90
2022-11-19T08:24:47.063Z,1.20
2022-11-19T08:27:15.002Z,1.20
2022-11-19T08:29:42.913Z,1.13
2022-11-19T08:32:10.826Z,1.23
2022-11-19T08:34:38.760Z,1.20
2022-11-19T08:37:08.451Z,1.30
2022-11-19T08:39:36.333Z,1.27
2022-11-19T08:42:21.814Z,1.13
2022-11-19T08:44:49.746Z,1.43
2022-11-19T08:47:17.675Z,1.60
2022-11-19T08:49:45.598Z,1.47
2022-11-19T08:52:15.216Z,1.27
2022-11-19T08:54:43.145Z,1.23
2022-11-19T08:57:11.064Z,1.20
2022-11-19T08:59:38.953Z,1.20
2022-11-19T09:02:06.908Z,1.10
2022-11-19T09:04:35.018Z,1.13
2022-11-19T09:07:03.003Z,1.20
2022-11-19T09:09:32.343Z,1.20
2022-11-19T09:12:00.209Z,1.10
2022-11-19T09:14:28.241Z,0.80
2022-11-19T09:16:56.185Z,1.00
2022-11-19T09:19:24.131Z,0.80
2022-11-19T09:21:52.102Z,1.00
2022-11-19T09:24:20.312Z,1.20
2022-11-19T09:26:52.836Z,1.10
2022-11-19T09:29:21.236Z,1.10
2022-11-19T09:31:49.266Z,0.90
2022-11-19T09:34:17.608Z,2.10
2022-11-19T09:36:45.650Z,0.70
2022-11-19T09:39:13.699Z,0.90
2022-11-19T09:41:51.244Z,0.70
2022-11-19T09:44:54.632Z,1.23
2022-11-19T09:47:33.205Z,1.00
2022-11-19T09:50:13.285Z,0.83
2022-11-19T09:52:46.123Z,0.80
2022-11-19T09:55:20.424Z,0.70
2022-11-19T09:57:54.237Z,0.80
2022-11-19T10:00:24.377Z,0.83
2022-11-19T10:02:53.475Z,0.80
2022-11-19T10:05:30.527Z,0.83
2022-11-19T10:08:12.247Z,0.90
2022-11-19T10:10:43.276Z,1.03
2022-11-19T10:13:24.682Z,0.93
2022-11-19T10:16:19.490Z,0.90
2022-11-19T10:18:55.993Z,0.70
2022-11-19T10:21:28.540Z,1.27
2022-11-19T10:24:04.499Z,0.80
2022-11-19T10:26:35.815Z,0.30
2022-11-19T10:29:13.890Z,0.83
2022-11-19T10:31:46.400Z,0.70
2022-11-19T10:34:23.141Z,0.50
2022-11-19T10:36:57.363Z,0.70
2022-11-19T10:39:32.441Z,0.53
2022-11-19T10:42:09.077Z,0.50
2022-11-19T10:44:43.045Z,0.57
2022-11-19T10:47:18.099Z,0.70
2022-11-19T10:49:46.335Z,0.50
2022-11-19T10:52:24.809Z,0.47
2022-11-19T10:54:56.147Z,0.60
2022-11-19T10:57:25.741Z,0.40
2022-11-19T10:59:55.936Z,0.70
2022-11-19T11:02:30.528Z,0.50
2022-11-19T11:05:05.488Z,0.70
2022-11-19T11:07:51.744Z,0.50
2022-11-19T11:10:32.229Z,0.67
2022-11-19T11:13:25.874Z,0.67
2022-11-19T11:15:55.786Z,0.57
2022-11-19T11:18:30.553Z,0.53
2022-11-19T11:20:59.278Z,0.60
2022-11-19T11:23:29.159Z,0.40
2022-11-19T11:26:05.113Z,0.40
2022-11-19T11:28:33.657Z,0.50
2022-11-19T11:31:04.806Z,0.70
2022-11-19T11:33:37.601Z,0.47
2022-11-19T11:36:08.632Z,0.50
2022-11-19T11:38:43.604Z,0.60
2022-11-19T11:42:03.410Z,0.60
2022-11-19T11:44:04.085Z,0.50
2022-11-19T11:46:39.819Z,0.50
2022-11-19T11:49:13.114Z,0.50
2022-11-19T11:51:41.099Z,0.50
2022-11-19T11:54:18.739Z,0.40
2022-11-19T11:56:47.553Z,0.50
2022-11-19T11:59:22.585Z,0.40
2022-11-19T12:01:56.898Z,0.37
2022-11-19T12:04:25.300Z,0.40
2022-11-19T12:07:13.126Z,0.50
2022-11-19T12:09:50.894Z,0.40
2022-11-19T12:12:25.919Z,0.40
2022-11-19T12:14:59.917Z,0.50
2022-11-19T12:17:44.194Z,0.50
2022-11-19T12:20:34.787Z,0.50
2022-11-19T12:23:30.889Z,0.53
2022-11-19T12:26:12.494Z,0.43
2022-11-19T12:28:54.400Z,0.50
2022-11-19T12:31:35.781Z,0.30
2022-11-19T12:34:20.841Z,0.40
2022-11-19T12:36:56.968Z,0.30
2022-11-19T12:39:39.275Z,0.50
2022-11-19T12:42:34.777Z,0.57
2022-11-19T12:45:11.090Z,0.50
2022-11-19T12:47:54.500Z,0.43
2022-11-19T12:50:30.231Z,0.40
2022-11-19T12:53:13.635Z,0.40
2022-11-19T12:55:49.375Z,0.40
2022-11-19T12:58:26.555Z,0.30
2022-11-19T13:00:59.458Z,0.40
2022-11-19T13:03:36.176Z,0.50
2022-11-19T13:06:14.069Z,0.60
2022-11-19T13:08:50.378Z,0.47
2022-11-19T13:11:24.687Z,0.40
2022-11-19T13:13:58.302Z,0.40
2022-11-19T13:16:28.634Z,0.50
2022-11-19T13:19:15.370Z,0.37
2022-11-19T13:21:53.658Z,0.30
2022-11-19T13:24:30.474Z,0.50
2022-11-19T13:27:05.502Z,0.40
2022-11-19T13:29:43.735Z,0.40
2022-11-19T13:32:23.814Z,0.40
2022-11-19T13:35:04.926Z,0.43
2022-11-19T13:37:44.957Z,0.40
2022-11-19T13:40:21.810Z,0.50
2022-11-19T13:43:31.149Z,0.50
2022-11-19T13:46:03.211Z,0.50
2022-11-19T13:48:34.905Z,0.60
2022-11-19T13:51:05.295Z,0.43
2022-11-19T13:53:41.489Z,0.40
2022-11-19T13:56:15.174Z,0.37
2022-11-19T13:58:48.720Z,0.50
2022-11-19T14:01:57.054Z,0.40
2022-11-19T14:04:41.793Z,0.40
2022-11-19T14:07:35.866Z,0.40
2022-11-19T14:10:14.065Z,0.40
2022-11-19T14:13:04.317Z,0.43
2022-11-19T14:16:04.212Z,0.40
2022-11-19T14:18:54.675Z,0.40
2022-11-19T14:22:01.660Z,0.40
2022-11-19T14:25:13.171Z,0.53
2022-11-19T14:27:43.016Z,0.33
2022-11-19T14:30:16.756Z,0.47
2022-11-19T14:32:55.289Z,0.43
2022-11-19T14:35:36.726Z,0.40
2022-11-19T14:38:39.376Z,0.50
2022-11-19T14:41:29.981Z,0.40
2022-11-19T14:44:15.294Z,0.40
2022-11-19T14:46:52.236Z,0.40
2022-11-19T14:49:30.353Z,0.40
2022-11-19T14:51:59.484Z,0.40
2022-11-19T14:54:38.613Z,0.37
2022-11-19T14:57:17.960Z,0.40
2022-11-19T14:59:54.652Z,0.50
2022-11-19T15:02:36.785Z,0.40
2022-11-19T15:05:15.578Z,0.40
2022-11-19T15:07:51.245Z,0.40
2022-11-19T15:10:30.143Z,0.50
2022-11-19T15:13:23.925Z,0.40
2022-11-19T15:16:09.180Z,0.47
2022-11-19T15:19:15.948Z,0.43
2022-11-19T15:22:27.718Z,0.43
2022-11-19T15:25:20.198Z,0.40
2022-11-19T15:28:12.605Z,0.90
2022-11-19T15:31:17.308Z,0.60
2022-11-19T15:34:16.788Z,0.60
2022-11-19T15:36:46.569Z,0.50
2022-11-19T15:39:23.551Z,0.70
2022-11-19T15:42:04.181Z,0.63
2022-11-19T15:44:42.669Z,0.50
2022-11-19T15:47:17.617Z,0.50
2022-11-19T15:49:46.817Z,0.50
2022-11-19T15:52:24.271Z,0.40
2022-11-19T15:54:52.265Z,1.17
2022-11-19T15:57:24.146Z,0.63
2022-11-19T15:59:56.527Z,0.47
2022-11-19T16:02:33.702Z,0.50
2022-11-19T16:05:01.683Z,0.53
2022-11-19T16:07:31.345Z,0.60
2022-11-19T16:10:00.395Z,0.50
2022-11-19T16:12:47.049Z,0.57
2022-11-19T16:15:39.149Z,0.70
2022-11-19T16:18:15.502Z,0.53
2022-11-19T16:20:46.644Z,0.50
2022-11-19T16:23:19.061Z,0.60
2022-11-19T16:25:48.223Z,0.80
2022-11-19T16:28:18.736Z,1.00
2022-11-19T16:30:49.495Z,1.10
2022-11-19T16:33:21.752Z,0.60
2022-11-19T16:35:53.166Z,1.00
2022-11-19T16:38:27.723Z,0.70
2022-11-19T16:41:13.629Z,0.60
2022-11-19T16:43:44.676Z,0.70
2022-11-19T16:46:17.117Z,1.00
2022-11-19T16:48:57.404Z,0.80
2022-11-19T16:51:37.200Z,1.00
2022-11-19T16:54:07.185Z,1.07
2022-11-19T16:56:44.261Z,0.80
2022-11-19T16:59:20.551Z,0.70
2022-11-19T17:01:59.500Z,1.00
2022-11-19T17:04:31.698Z,1.20
2022-11-19T17:07:00.059Z,0.70
2022-11-19T17:09:35.739Z,1.00
2022-11-19T17:12:18.674Z,1.37
2022-11-19T17:14:58.967Z,0.73
2022-11-19T17:17:40.723Z,1.23
2022-11-19T17:20:51.203Z,0.70
2022-11-19T17:23:21.204Z,1.10
2022-11-19T17:25:51.086Z,1.10
2022-11-19T17:28:21.596Z,1.03
2022-11-19T17:30:50.601Z,1.10
2022-11-19T17:33:22.322Z,1.00
2022-11-19T17:35:52.150Z,0.87
2022-11-19T17:38:23.782Z,0.90
2022-11-19T17:40:53.157Z,1.10
2022-11-19T17:43:41.897Z,1.10
2022-11-19T17:46:10.093Z,1.07
2022-11-19T17:48:40.882Z,1.10
2022-11-19T17:51:12.800Z,1.00
2022-11-19T17:53:40.978Z,1.10
2022-11-19T17:56:17.451Z,1.00
2022-11-19T17:58:45.483Z,0.90
2022-11-19T18:01:14.065Z,0.90
2022-11-19T18:03:42.015Z,1.30
2022-11-19T18:06:13.550Z,1.03
2022-11-19T18:08:42.120Z,1.13
2022-11-19T18:11:13.131Z,1.17
2022-11-19T18:13:43.036Z,1.00
2022-11-19T18:16:14.451Z,0.80
2022-11-19T18:18:42.382Z,1.07
2022-11-19T18:21:13.315Z,1.20
2022-11-19T18:23:41.904Z,1.10
2022-11-19T18:26:11.586Z,1.10
2022-11-19T18:28:39.891Z,0.77
2022-11-19T18:31:16.274Z,1.00
2022-11-19T18:33:45.280Z,0.83
2022-11-19T18:36:14.842Z,1.20
2022-11-19T18:38:42.850Z,1.07
2022-11-19T18:41:11.672Z,0.90
2022-11-19T18:43:57.225Z,0.80
2022-11-19T18:46:25.235Z,0.90
2022-11-19T18:48:53.542Z,1.30
2022-11-19T18:51:23.216Z,1.20
2022-11-19T18:53:51.114Z,1.10
2022-11-19T18:56:20.130Z,1.40
2022-11-19T18:58:48.029Z,0.90
2022-11-19T19:01:17.076Z,1.07
2022-11-19T19:03:45.534Z,1.00
2022-11-19T19:06:13.462Z,1.40
2022-11-19T19:08:42.845Z,1.13
2022-11-19T19:11:29.121Z,1.10
2022-11-19T19:13:57.045Z,1.40
2022-11-19T19:16:24.939Z,1.00
2022-11-19T19:18:53.207Z,1.17
2022-11-19T19:21:22.565Z,1.17
2022-11-19T19:23:51.788Z,1.00
2022-11-19T19:26:20.321Z,1.07
2022-11-19T19:28:50.528Z,1.10
2022-11-19T19:31:18.561Z,1.13
2022-11-19T19:33:46.543Z,1.20
2022-11-19T19:36:15.605Z,1.70
2022-11-19T19:38:44.003Z,1.40
2022-11-19T19:41:15.741Z,1.10
2022-11-19T19:43:43.897Z,1.50
2022-11-19T19:46:15.742Z,1.20
2022-11-19T19:48:44.571Z,1.10
2022-11-19T19:51:13.355Z,1.20
2022-11-19T19:53:41.937Z,1.47
2022-11-19T19:56:13.920Z,1.20
2022-11-19T19:58:43.641Z,1.13
2022-11-19T20:01:13.000Z,1.40
2022-11-19T20:03:40.989Z,1.50
2022-11-19T20:06:10.705Z,1.50
2022-11-19T20:08:40.790Z,1.30
2022-11-19T20:11:11.123Z,1.53
2022-11-19T20:13:41.114Z,1.33
2022-11-19T20:16:17.389Z,1.20
2022-11-19T20:18:46.396Z,1.40
2022-11-19T20:21:16.069Z,1.00
2022-11-19T20:23:44.598Z,1.40
2022-11-19T20:26:14.358Z,1.30
2022-11-19T20:28:44.006Z,1.17
2022-11-19T20:31:13.546Z,1.10
2022-11-19T20:33:42.713Z,0.90
2022-11-19T20:36:12.167Z,0.90
2022-11-19T20:38:41.947Z,1.10
2022-11-19T20:41:28.829Z,1.20
2022-11-19T20:44:15.990Z,1.50
2022-11-19T20:46:44.577Z,1.50
2022-11-19T20:49:16.928Z,1.30
2022-11-19T20:51:45.904Z,1.47
2022-11-19T20:54:14.238Z,1.47
2022-11-19T20:56:42.547Z,1.23
2022-11-19T20:59:12.868Z,1.60
2022-11-19T21:01:40.934Z,1.20
2022-11-19T21:04:09.782Z,1.10
2022-11-19T21:06:37.763Z,1.40
2022-11-19T21:09:06.110Z,1.10
2022-11-19T21:11:34.585Z,1.20
2022-11-19T21:14:02.897Z,0.83
2022-11-19T21:16:32.930Z,1.30
2022-11-19T21:19:01.358Z,1.30
2022-11-19T21:21:29.395Z,1.20
2022-11-19T21:23:57.581Z,1.37
2022-11-19T21:26:27.088Z,1.10
2022-11-19T21:28:57.189Z,1.20
2022-11-19T21:31:37.859Z,1.37
2022-11-19T21:34:08.137Z,1.20
2022-11-19T21:36:36.398Z,1.33
2022-11-19T21:39:04.980Z,1.53
2022-11-19T21:41:33.248Z,1.20
2022-11-19T21:44:02.051Z,1.20
2022-11-19T21:46:30.111Z,1.20
2022-11-19T21:48:58.115Z,1.30
2022-11-19T21:51:27.410Z,1.23
2022-11-19T21:53:56.086Z,1.23
2022-11-19T21:56:24.261Z,1.17
2022-11-19T21:58:52.210Z,1.40
2022-11-19T22:01:20.648Z,1.40
2022-11-19T22:03:49.035Z,1.10
2022-11-19T22:06:17.007Z,1.30
2022-11-19T22:08:46.250Z,1.20
2022-11-19T22:11:32.574Z,1.40
2022-11-19T22:14:02.287Z,1.10
2022-11-19T22:16:31.067Z,1.30
2022-11-19T22:18:58.971Z,1.17
2022-11-19T22:21:27.029Z,1.47
2022-11-19T22:23:56.365Z,1.20
2022-11-19T22:26:24.544Z,1.37
2022-11-19T22:28:52.469Z,1.20
2022-11-19T22:31:20.345Z,1.30
2022-11-19T22:33:51.384Z,1.13
2022-11-19T22:36:20.543Z,1.20
2022-11-19T22:38:48.649Z,1.50
2022-11-19T22:41:19.802Z,1.30
2022-11-19T22:43:47.825Z,1.27
2022-11-19T22:46:16.428Z,1.40
2022-11-19T22:48:44.575Z,1.50
2022-11-19T22:51:14.660Z,1.07
2022-11-19T22:53:42.587Z,1.23
2022-11-19T22:56:12.062Z,1.30
2022-11-19T22:58:41.651Z,1.10
2022-11-19T23:01:17.024Z,1.47
2022-11-19T23:03:45.081Z,1.77
2022-11-19T23:06:13.024Z,1.60
2022-11-19T23:08:40.994Z,1.30
2022-11-19T23:11:10.062Z,1.23
2022-11-19T23:13:40.949Z,1.67
2022-11-19T23:16:11.750Z,1.13
2022-11-19T23:18:41.551Z,1.23
2022-11-19T23:21:11.869Z,1.13
2022-11-19T23:23:39.954Z,1.33
2022-11-19T23:26:09.662Z,1.53
2022-11-19T23:28:38.701Z,1.50
2022-11-19T23:31:10.387Z,1.63
2022-11-19T23:33:38.582Z,1.60
2022-11-19T23:36:09.198Z,1.07
2022-11-19T23:38:37.278Z,1.50
2022-11-19T23:41:06.913Z,1.30
2022-11-19T23:43:35.651Z,1.80
2022-11-19T23:46:10.193Z,1.43
2022-11-19T23:48:39.472Z,1.70
2022-11-19T23:51:08.903Z,1.35
2022-11-19T23:53:37.206Z,1.77
2022-11-19T23:56:06.425Z,1.30
2022-11-19T23:58:34.969Z,1.40
